createdAt,value
2022-11-23T00:00:40.061Z,2.50
2022-11-23T00:03:08.083Z,2.50
2022-11-23T00:05:36.146Z,2.60
2022-11-23T00:08:06.046Z,2.50
2022-11-23T00:10:34.059Z,2.50
2022-11-23T00:13:02.313Z,2.60
2022-11-23T00:15:30.367Z,2.50
2022-11-23T00:18:00.073Z,2.50
2022-11-23T00:20:28.113Z,2.50
2022-11-23T00:22:56.109Z,2.50
2022-11-23T00:25:25.474Z,2.50
2022-11-23T00:27:53.486Z,2.50
2022-11-23T00:30:21.665Z,2.50
2022-11-23T00:32:49.726Z,2.50
2022-11-23T00:35:17.971Z,2.50
2022-11-23T00:37:46.005Z,2.50
2022-11-23T00:40:14.240Z,2.50
2022-11-23T00:42:43.652Z,2.50
2022-11-23T00:45:12.144Z,2.50
2022-11-23T00:47:40.170Z,2.50
2022-11-23T00:50:09.220Z,2.50
2022-11-23T00:52:37.231Z,2.40
2022-11-23T00:55:06.051Z,2.40
2022-11-23T00:57:35.050Z,2.40
2022-11-23T01:00:06.333Z,2.40
2022-11-23T01:02:36.942Z,2.30
2022-11-23T01:05:06.704Z,2.40
2022-11-23T01:07:34.780Z,2.30
2022-11-23T01:10:02.844Z,2.30
2022-11-23T01:12:31.008Z,2.30
2022-11-23T01:14:59.024Z,2.30
2022-11-23T01:17:28.631Z,2.30
2022-11-23T01:19:56.661Z,2.30
2022-11-23T01:22:24.664Z,2.20
2022-11-23T01:24:52.690Z,2.30
2022-11-23T01:27:20.737Z,2.20
2022-11-23T01:29:49.108Z,2.30
2022-11-23T01:32:17.109Z,2.20
2022-11-23T01:34:46.517Z,2.20
2022-11-23T01:37:14.533Z,2.20
2022-11-23T01:39:42.561Z,2.20
2022-11-23T01:42:13.944Z,2.20
2022-11-23T01:44:45.787Z,2.20
2022-11-23T01:47:13.775Z,2.10
2022-11-23T01:49:44.954Z,2.10
2022-11-23T01:52:18.236Z,2.10
2022-11-23T01:54:49.815Z,2.00
2022-11-23T01:57:22.448Z,2.00
2022-11-23T01:59:51.678Z,2.00
2022-11-23T02:02:20.354Z,2.00
2022-11-23T02:04:51.617Z,2.00
2022-11-23T02:07:24.045Z,2.00
2022-11-23T02:09:52.928Z,2.00
2022-11-23T02:12:20.989Z,2.00
2022-11-23T02:14:49.117Z,2.00
2022-11-23T02:17:17.196Z,2.00
2022-11-23T02:19:58.137Z,2.00
2022-11-23T02:22:33.568Z,2.00
2022-11-23T02:25:05.014Z,2.00
2022-11-23T02:27:34.528Z,2.00
2022-11-23T02:30:03.907Z,2.00
2022-11-23T02:32:32.809Z,2.00
2022-11-23T02:35:00.805Z,2.00
2022-11-23T02:37:28.847Z,2.00
2022-11-23T02:40:00.630Z,2.00
2022-11-23T02:42:29.975Z,2.00
2022-11-23T02:45:06.394Z,2.00
2022-11-23T02:47:34.403Z,2.00
2022-11-23T02:50:02.476Z,1.90
2022-11-23T02:52:30.493Z,1.90
2022-11-23T02:54:58.670Z,1.90
2022-11-23T02:57:26.730Z,1.90
2022-11-23T02:59:54.735Z,1.90
2022-11-23T03:02:24.125Z,1.80
2022-11-23T03:04:52.118Z,1.90
2022-11-23T03:07:20.165Z,1.90
2022-11-23T03:09:48.308Z,1.80
2022-11-23T03:12:16.756Z,1.80
2022-11-23T03:14:44.767Z,1.80
2022-11-23T03:17:12.796Z,1.80
2022-11-23T03:19:42.203Z,1.80
2022-11-23T03:22:10.250Z,1.80
2022-11-23T03:24:38.674Z,1.80
2022-11-23T03:27:06.743Z,1.70
2022-11-23T03:29:34.920Z,1.70
2022-11-23T03:32:03.093Z,1.70
2022-11-23T03:34:31.111Z,1.70
2022-11-23T03:37:00.520Z,1.70
2022-11-23T03:39:28.580Z,1.60
2022-11-23T03:41:56.581Z,1.70
2022-11-23T03:44:25.057Z,1.70
2022-11-23T03:46:53.090Z,1.70
2022-11-23T03:49:21.184Z,1.60
2022-11-23T03:51:49.246Z,1.60
2022-11-23T03:54:18.647Z,1.60
2022-11-23T03:56:46.702Z,1.60
2022-11-23T03:59:14.721Z,1.60
2022-11-23T04:01:42.736Z,1.60
2022-11-23T04:04:10.727Z,1.60
2022-11-23T04:06:38.760Z,1.60
2022-11-23T04:09:06.833Z,1.50
2022-11-23T04:11:36.207Z,1.50
2022-11-23T04:14:04.250Z,1.50
2022-11-23T04:16:32.329Z,1.50
2022-11-23T04:19:00.373Z,1.40
2022-11-23T04:21:28.387Z,1.50
2022-11-23T04:23:56.422Z,1.50
2022-11-23T04:26:24.444Z,1.50
2022-11-23T04:28:53.823Z,1.50
2022-11-23T04:31:21.866Z,1.50
2022-11-23T04:33:49.958Z,1.50
2022-11-23T04:36:18.032Z,1.50
2022-11-23T04:38:46.041Z,1.50
2022-11-23T04:41:14.048Z,1.40
2022-11-23T04:43:42.062Z,1.40
2022-11-23T04:46:12.641Z,1.40
2022-11-23T04:48:40.667Z,1.40
2022-11-23T04:51:08.746Z,1.40
2022-11-23T04:53:37.028Z,1.40
2022-11-23T04:56:05.250Z,1.40
2022-11-23T04:58:34.693Z,1.40
2022-11-23T05:01:02.958Z,1.40
2022-11-23T05:03:34.936Z,1.40
2022-11-23T05:06:03.498Z,1.40
2022-11-23T05:08:31.940Z,1.40
2022-11-23T05:11:00.224Z,1.40
2022-11-23T05:13:28.444Z,1.40
2022-11-23T05:15:56.475Z,1.40
2022-11-23T05:18:24.538Z,1.40
2022-11-23T05:20:53.959Z,1.40
2022-11-23T05:23:21.995Z,1.40
2022-11-23T05:25:50.026Z,1.40
2022-11-23T05:31:08.452Z,1.40
2022-11-23T05:33:36.811Z,1.50
2022-11-23T05:36:06.939Z,1.40
2022-11-23T05:38:34.991Z,1.40
2022-11-23T05:41:02.999Z,1.40
2022-11-23T05:43:31.036Z,1.50
2022-11-23T05:46:00.347Z,1.50
2022-11-23T05:48:28.412Z,1.50
2022-11-23T05:50:58.570Z,1.50
2022-11-23T05:53:32.434Z,1.50
2022-11-23T05:56:01.409Z,1.40
2022-11-23T05:58:29.555Z,1.40
2022-11-23T06:00:59.375Z,1.40
2022-11-23T06:03:27.711Z,1.40
2022-11-23T06:05:55.901Z,1.40
2022-11-23T06:08:23.978Z,1.40
2022-11-23T06:10:53.343Z,1.50
2022-11-23T06:13:21.571Z,1.50
2022-11-23T06:15:49.652Z,1.50
2022-11-23T06:18:17.681Z,1.50
2022-11-23T06:20:45.738Z,1.50
2022-11-23T06:23:13.751Z,1.50
2022-11-23T06:25:55.313Z,1.50
2022-11-23T06:28:23.326Z,1.50
2022-11-23T06:30:51.371Z,1.50
2022-11-23T06:33:19.493Z,1.50
2022-11-23T06:35:54.796Z,1.50
2022-11-23T06:38:22.842Z,1.50
2022-11-23T06:40:50.893Z,1.60
2022-11-23T06:43:20.500Z,1.50
2022-11-23T06:45:48.518Z,1.50
2022-11-23T06:48:16.570Z,1.50
2022-11-23T06:50:44.585Z,1.50
2022-11-23T06:53:12.667Z,1.50
2022-11-23T06:55:40.929Z,1.50
2022-11-23T06:58:08.971Z,1.50
2022-11-23T07:00:38.337Z,1.50
2022-11-23T07:03:06.358Z,1.50
2022-11-23T07:05:34.398Z,1.50
2022-11-23T07:08:02.429Z,1.50
2022-11-23T07:10:30.460Z,1.50
2022-11-23T07:13:05.325Z,1.50
2022-11-23T07:15:33.915Z,1.50
2022-11-23T07:18:03.376Z,1.50
2022-11-23T07:20:31.400Z,1.50
2022-11-23T07:23:03.110Z,1.50
2022-11-23T07:25:31.709Z,1.50
2022-11-23T07:28:01.199Z,1.50
2022-11-23T07:30:30.822Z,1.50
2022-11-23T07:33:01.265Z,1.50
2022-11-23T07:35:31.738Z,1.50
2022-11-23T07:38:00.245Z,1.50
2022-11-23T07:40:28.521Z,1.50
2022-11-23T07:43:01.782Z,1.50
2022-11-23T07:45:30.697Z,1.60
2022-11-23T07:48:02.653Z,1.50
2022-11-23T07:50:33.156Z,1.60
2022-11-23T07:53:03.817Z,1.60
2022-11-23T07:55:32.016Z,1.60
2022-11-23T07:58:00.228Z,1.60
2022-11-23T08:00:29.819Z,1.60
2022-11-23T08:05:48.764Z,1.60
2022-11-23T08:08:16.867Z,1.70
2022-11-23T08:10:49.931Z,1.70
2022-11-23T08:13:20.867Z,1.70
2022-11-23T08:15:54.473Z,1.70
2022-11-23T08:18:24.458Z,1.70
2022-11-23T08:20:53.987Z,1.70
2022-11-23T08:23:22.776Z,1.70
2022-11-23T08:25:50.796Z,1.80
2022-11-23T08:28:19.352Z,1.80
2022-11-23T08:30:47.863Z,1.80
2022-11-23T08:33:16.493Z,1.80
2022-11-23T08:35:44.544Z,1.80
2022-11-23T08:38:14.159Z,1.90
2022-11-23T08:40:42.682Z,1.90
2022-11-23T08:43:10.765Z,1.90
2022-11-23T08:45:38.793Z,1.90
2022-11-23T08:48:07.669Z,2.00
2022-11-23T08:50:37.099Z,2.00
2022-11-23T08:53:05.706Z,2.00
2022-11-23T08:55:35.275Z,2.10
2022-11-23T08:58:03.288Z,2.10
2022-11-23T09:00:31.594Z,2.10
2022-11-23T09:03:00.926Z,2.20
2022-11-23T09:05:30.038Z,2.20
2022-11-23T09:08:01.092Z,2.20
2022-11-23T09:10:29.416Z,2.30
2022-11-23T09:13:00.120Z,2.30
2022-11-23T09:15:28.124Z,2.30
2022-11-23T09:17:56.204Z,2.20
2022-11-23T09:20:24.360Z,2.30
2022-11-23T09:22:53.523Z,2.30
2022-11-23T09:25:22.287Z,2.30
2022-11-23T09:27:50.921Z,2.30
2022-11-23T09:30:20.360Z,2.30
2022-11-23T09:32:48.386Z,2.30
2022-11-23T09:35:16.438Z,2.30
2022-11-23T09:37:44.472Z,2.30
2022-11-23T09:40:16.124Z,2.40
2022-11-23T09:42:56.035Z,2.40
2022-11-23T09:45:31.922Z,2.50
2022-11-23T09:48:19.037Z,2.50
2022-11-23T09:50:48.888Z,2.60
2022-11-23T09:53:21.735Z,2.70
2022-11-23T09:55:52.801Z,2.70
2022-11-23T09:58:23.193Z,2.80
2022-11-23T10:01:01.782Z,2.90
2022-11-23T10:03:32.838Z,3.10
2022-11-23T10:06:07.280Z,3.20
2022-11-23T10:08:45.848Z,3.40
2022-11-23T10:11:36.638Z,3.50
2022-11-23T10:14:15.732Z,3.60
2022-11-23T10:16:53.659Z,3.70
2022-11-23T10:19:29.275Z,3.80
2022-11-23T10:22:07.463Z,3.90
2022-11-23T10:24:40.576Z,3.90
2022-11-23T10:27:17.397Z,3.90
2022-11-23T10:29:45.909Z,4.00
2022-11-23T10:32:27.701Z,4.00
2022-11-23T10:35:05.254Z,4.00
2022-11-23T10:37:34.600Z,4.10
2022-11-23T10:40:02.604Z,4.10
2022-11-23T10:42:34.887Z,4.10
2022-11-23T10:45:04.592Z,4.10
2022-11-23T10:47:40.947Z,4.20
2022-11-23T10:50:29.661Z,4.20
2022-11-23T10:53:00.350Z,4.30
2022-11-23T10:55:30.947Z,4.30
2022-11-23T10:58:00.132Z,4.40
2022-11-23T11:00:31.098Z,4.30
2022-11-23T11:03:03.359Z,4.30
2022-11-23T11:08:24.986Z,4.40
2022-11-23T11:10:59.875Z,4.40
2022-11-23T11:13:31.027Z,4.40
2022-11-23T11:16:01.358Z,4.40
2022-11-23T11:18:34.181Z,4.40
2022-11-23T11:21:05.825Z,4.50
2022-11-23T11:23:35.529Z,4.50
2022-11-23T11:26:10.509Z,4.50
2022-11-23T11:28:41.673Z,4.50
2022-11-23T11:31:38.269Z,4.60
2022-11-23T11:34:18.831Z,4.60
2022-11-23T11:36:54.096Z,4.70
2022-11-23T11:39:29.665Z,4.70
2022-11-23T11:42:01.572Z,4.70
2022-11-23T11:44:34.523Z,4.80
2022-11-23T11:47:11.362Z,4.80
2022-11-23T11:49:47.723Z,4.90
2022-11-23T11:52:22.089Z,4.90
2022-11-23T11:54:56.662Z,5.00
2022-11-23T11:57:29.137Z,5.10
2022-11-23T11:59:58.703Z,5.10
2022-11-23T12:02:29.385Z,5.20
2022-11-23T12:05:08.791Z,5.30
2022-11-23T12:07:40.742Z,5.30
2022-11-23T12:10:15.222Z,5.40
2022-11-23T12:12:43.325Z,5.50
2022-11-23T12:15:47.768Z,5.60
2022-11-23T12:18:23.749Z,5.70
2022-11-23T12:21:03.432Z,5.80
2022-11-23T12:23:43.898Z,5.80
2022-11-23T12:26:25.240Z,5.90
2022-11-23T12:29:28.031Z,6.00
2022-11-23T12:32:09.076Z,6.00
2022-11-23T12:34:56.984Z,6.10
2022-11-23T12:37:41.034Z,6.10
2022-11-23T12:40:38.063Z,6.20
2022-11-23T12:43:13.439Z,6.20
2022-11-23T12:45:54.198Z,6.20
2022-11-23T12:48:41.969Z,6.20
2022-11-23T12:51:21.202Z,6.20
2022-11-23T12:54:01.056Z,6.20
2022-11-23T12:56:52.323Z,6.20
2022-11-23T12:59:21.784Z,6.30
2022-11-23T13:01:53.264Z,6.30
2022-11-23T13:04:49.477Z,6.30
2022-11-23T13:08:01.517Z,6.30
2022-11-23T13:10:43.878Z,6.30
2022-11-23T13:13:36.245Z,6.30
2022-11-23T13:16:22.718Z,6.30
2022-11-23T13:19:07.981Z,6.30
2022-11-23T13:21:38.601Z,6.30
2022-11-23T13:24:26.136Z,6.30
2022-11-23T13:27:31.967Z,6.40
2022-11-23T13:30:11.078Z,6.30
2022-11-23T13:32:56.057Z,6.40
2022-11-23T13:36:10.098Z,6.30
2022-11-23T13:38:42.964Z,6.30
2022-11-23T13:41:53.626Z,6.30
2022-11-23T13:44:24.166Z,6.30
2022-11-23T13:47:05.586Z,6.30
2022-11-23T13:49:39.014Z,6.30
2022-11-23T13:52:26.229Z,6.20
2022-11-23T13:54:57.610Z,6.20
2022-11-23T13:57:25.843Z,6.20
2022-11-23T13:59:53.882Z,6.10
2022-11-23T14:02:29.397Z,6.10
2022-11-23T14:05:33.019Z,6.10
2022-11-23T14:08:04.305Z,6.00
2022-11-23T14:10:33.496Z,6.00
2022-11-23T14:13:09.181Z,6.00
2022-11-23T14:15:39.040Z,5.90
2022-11-23T14:18:32.352Z,5.90
2022-11-23T14:21:13.687Z,5.80
2022-11-23T14:24:26.467Z,5.80
2022-11-23T14:27:39.158Z,5.80
2022-11-23T14:30:07.842Z,5.70
2022-11-23T14:32:50.649Z,5.70
2022-11-23T14:35:27.737Z,5.60
2022-11-23T14:38:13.899Z,5.60
2022-11-23T14:40:54.266Z,5.50
2022-11-23T14:43:23.357Z,5.40
2022-11-23T14:45:51.616Z,5.40
2022-11-23T14:48:24.034Z,5.30
2022-11-23T14:51:05.263Z,5.20
2022-11-23T14:53:36.651Z,5.20
2022-11-23T14:56:04.908Z,5.10
2022-11-23T14:58:34.510Z,5.10
2022-11-23T15:01:03.791Z,5.00
2022-11-23T15:03:49.823Z,5.00
2022-11-23T15:06:22.718Z,4.90
2022-11-23T15:08:58.373Z,4.90
2022-11-23T15:11:29.311Z,4.80
2022-11-23T15:14:03.229Z,4.80
2022-11-23T15:16:39.485Z,4.80
2022-11-23T15:19:19.129Z,4.70
2022-11-23T15:21:49.440Z,4.70
2022-11-23T15:24:25.013Z,4.60
2022-11-23T15:26:54.002Z,4.60
2022-11-23T15:29:35.811Z,4.50
2022-11-23T15:34:56.899Z,4.40
2022-11-23T15:37:27.718Z,4.40
2022-11-23T15:39:56.949Z,4.30
2022-11-23T15:42:26.961Z,4.30
2022-11-23T15:44:55.443Z,4.30
2022-11-23T15:47:28.279Z,4.20
2022-11-23T15:50:01.842Z,4.20
2022-11-23T15:52:36.558Z,4.10
2022-11-23T15:55:09.869Z,4.10
2022-11-23T15:57:40.432Z,4.00
2022-11-23T16:00:10.579Z,4.00
2022-11-23T16:02:38.724Z,4.00
2022-11-23T16:05:13.912Z,3.90
2022-11-23T16:07:54.664Z,3.90
2022-11-23T16:10:25.924Z,3.90
2022-11-23T16:12:55.879Z,3.90
2022-11-23T16:15:49.090Z,3.80
2022-11-23T16:18:23.781Z,3.80
2022-11-23T16:20:55.122Z,3.80
2022-11-23T16:23:27.534Z,3.70
2022-11-23T16:25:59.783Z,3.70
2022-11-23T16:28:32.455Z,3.70
2022-11-23T16:31:01.403Z,3.60
2022-11-23T16:33:30.390Z,3.60
2022-11-23T16:35:58.532Z,3.60
2022-11-23T16:38:27.995Z,3.60
2022-11-23T16:40:56.479Z,3.60
2022-11-23T16:43:24.627Z,3.60
2022-11-23T16:45:52.934Z,3.50
2022-11-23T16:48:40.091Z,3.50
2022-11-23T16:51:10.790Z,3.50
2022-11-23T16:54:11.974Z,3.50
2022-11-23T16:56:31.053Z,3.50
2022-11-23T16:58:59.105Z,3.50
2022-11-23T17:01:29.567Z,3.50
2022-11-23T17:03:57.691Z,3.40
2022-11-23T17:06:26.261Z,3.40
2022-11-23T17:09:03.229Z,3.40
2022-11-23T17:11:38.470Z,3.40
2022-11-23T17:14:07.219Z,3.40
2022-11-23T17:16:35.396Z,3.40
2022-11-23T17:19:03.516Z,3.40
2022-11-23T17:21:31.535Z,3.40
2022-11-23T17:24:01.275Z,3.40
2022-11-23T17:26:35.464Z,3.40
2022-11-23T17:29:04.825Z,3.40
2022-11-23T17:31:32.898Z,3.40
2022-11-23T17:34:00.925Z,3.40
2022-11-23T17:36:30.932Z,3.40
2022-11-23T17:39:00.358Z,3.40
2022-11-23T17:41:29.531Z,3.40
2022-11-23T17:43:59.430Z,3.40
2022-11-23T17:46:31.417Z,3.40
2022-11-23T17:49:02.330Z,3.40
2022-11-23T17:51:30.674Z,3.40
2022-11-23T17:53:59.987Z,3.30
2022-11-23T17:56:28.024Z,3.30
2022-11-23T17:58:55.966Z,3.30
2022-11-23T18:01:24.832Z,3.20
2022-11-23T18:03:52.908Z,3.20
2022-11-23T18:06:22.625Z,3.20
2022-11-23T18:08:51.560Z,3.20
2022-11-23T18:11:21.689Z,3.20
2022-11-23T18:13:50.496Z,3.10
2022-11-23T18:16:20.607Z,3.10
2022-11-23T18:18:49.090Z,3.10
2022-11-23T18:21:17.687Z,3.10
2022-11-23T18:23:45.713Z,3.10
2022-11-23T18:26:19.563Z,3.00
2022-11-23T18:28:49.093Z,3.00
2022-11-23T18:31:17.779Z,3.10
2022-11-23T18:33:46.357Z,3.00
2022-11-23T18:36:14.743Z,3.00
2022-11-23T18:38:44.785Z,3.00
2022-11-23T18:41:13.496Z,3.00
2022-11-23T18:43:41.457Z,3.10
2022-11-23T18:46:12.142Z,3.00
2022-11-23T18:48:40.114Z,3.00
2022-11-23T18:51:11.676Z,3.00
2022-11-23T18:53:40.115Z,3.00
2022-11-23T18:56:09.617Z,3.00
2022-11-23T18:58:38.907Z,3.00
2022-11-23T19:01:13.230Z,3.00
2022-11-23T19:03:42.406Z,3.00
2022-11-23T19:06:13.603Z,3.00
2022-11-23T19:08:42.956Z,2.90
2022-11-23T19:11:16.227Z,3.00
2022-11-23T19:13:45.989Z,3.00
2022-11-23T19:16:17.368Z,2.90
2022-11-23T19:18:45.578Z,3.00
2022-11-23T19:21:15.295Z,2.90
2022-11-23T19:23:43.725Z,3.00
2022-11-23T19:26:11.748Z,3.00
2022-11-23T19:28:44.607Z,3.00
2022-11-23T19:31:14.246Z,3.00
2022-11-23T19:33:44.570Z,3.00
2022-11-23T19:36:14.489Z,3.00
2022-11-23T19:38:42.763Z,3.00
2022-11-23T19:41:10.977Z,3.00
2022-11-23T19:43:39.326Z,3.00
2022-11-23T19:46:10.338Z,3.00
2022-11-23T19:48:38.955Z,3.00
2022-11-23T19:51:11.227Z,3.00
2022-11-23T19:53:40.436Z,3.00
2022-11-23T19:56:10.928Z,3.00
2022-11-23T19:58:39.390Z,3.00
2022-11-23T20:01:09.016Z,3.00
2022-11-23T20:03:38.080Z,3.00
2022-11-23T20:06:10.042Z,3.00
2022-11-23T20:08:38.002Z,3.00
2022-11-23T20:11:10.254Z,3.00
2022-11-23T20:13:38.482Z,3.10
2022-11-23T20:16:08.345Z,3.10
2022-11-23T20:18:36.662Z,3.10
2022-11-23T20:21:05.115Z,3.10
2022-11-23T20:23:34.429Z,3.10
2022-11-23T20:26:02.401Z,3.10
2022-11-23T20:28:30.452Z,3.10
2022-11-23T20:31:04.421Z,3.10
2022-11-23T20:33:32.555Z,3.10
2022-11-23T20:36:09.536Z,3.10
2022-11-23T20:38:39.646Z,3.10
2022-11-23T20:41:15.600Z,3.10
2022-11-23T20:43:44.471Z,3.10
2022-11-23T20:46:12.696Z,3.10
2022-11-23T20:48:41.915Z,3.20
2022-11-23T20:51:10.774Z,3.10
2022-11-23T20:53:40.572Z,3.10
2022-11-23T20:56:11.768Z,3.10
2022-11-23T20:58:40.042Z,3.10
2022-11-23T21:01:09.537Z,3.10
2022-11-23T21:03:38.513Z,3.10
2022-11-23T21:06:07.937Z,3.20
2022-11-23T21:08:36.199Z,3.20
2022-11-23T21:11:29.617Z,3.10
2022-11-23T21:14:15.658Z,3.10
2022-11-23T21:16:52.706Z,3.10
2022-11-23T21:19:22.163Z,3.10
2022-11-23T21:21:50.523Z,3.10
2022-11-23T21:24:18.854Z,3.10
2022-11-23T21:26:48.498Z,3.10
2022-11-23T21:29:17.005Z,3.10
2022-11-23T21:31:46.265Z,3.10
2022-11-23T21:34:19.531Z,3.10
2022-11-23T21:36:47.935Z,3.10
2022-11-23T21:39:16.616Z,3.00
2022-11-23T21:41:44.878Z,3.00
2022-11-23T21:44:14.563Z,3.00
2022-11-23T21:46:43.018Z,3.00
2022-11-23T21:49:11.545Z,3.00
2022-11-23T21:51:42.348Z,3.00
2022-11-23T21:54:14.057Z,3.00
2022-11-23T21:56:42.703Z,3.00
2022-11-23T21:59:10.947Z,3.10
2022-11-23T22:01:40.628Z,3.00
2022-11-23T22:04:10.572Z,3.00
2022-11-23T22:06:39.626Z,3.00
2022-11-23T22:09:10.151Z,3.00
2022-11-23T22:11:40.860Z,3.00
2022-11-23T22:14:11.763Z,3.00
2022-11-23T22:16:43.785Z,3.00
2022-11-23T22:19:12.857Z,3.00
2022-11-23T22:21:42.438Z,3.00
2022-11-23T22:24:13.641Z,3.00
2022-11-23T22:26:41.670Z,3.00
2022-11-23T22:29:09.956Z,3.00
2022-11-23T22:31:38.177Z,3.00
2022-11-23T22:34:09.216Z,2.90
2022-11-23T22:36:37.579Z,2.90
2022-11-23T22:39:07.194Z,2.90
2022-11-23T22:41:37.092Z,2.90
2022-11-23T22:44:06.874Z,2.90
2022-11-23T22:46:35.157Z,2.80
2022-11-23T22:49:03.510Z,2.80
2022-11-23T22:51:33.054Z,2.80
2022-11-23T22:54:01.928Z,2.80
2022-11-23T22:56:31.488Z,2.80
2022-11-23T22:58:59.586Z,2.80
2022-11-23T23:01:29.476Z,2.80
2022-11-23T23:03:59.226Z,2.70
2022-11-23T23:06:29.162Z,2.70
2022-11-23T23:09:00.162Z,2.70
2022-11-23T23:11:29.815Z,2.60
2022-11-23T23:13:58.280Z,2.70
2022-11-23T23:16:26.787Z,2.60
2022-11-23T23:18:56.445Z,2.60
2022-11-23T23:21:25.291Z,2.60
2022-11-23T23:23:55.302Z,2.60
2022-11-23T23:26:27.132Z,2.60
2022-11-23T23:28:56.510Z,2.50
2022-11-23T23:31:25.601Z,2.50
2022-11-23T23:33:54.696Z,2.50
2022-11-23T23:36:24.397Z,2.50
2022-11-23T23:38:52.656Z,2.50
2022-11-23T23:41:20.919Z,2.50
2022-11-23T23:43:50.586Z,2.40
2022-11-23T23:46:18.910Z,2.40
2022-11-23T23:48:47.031Z,2.40
2022-11-23T23:51:16.913Z,2.40
2022-11-23T23:53:45.475Z,2.40
2022-11-23T23:56:15.293Z,2.40
2022-11-23T23:58:43.838Z,2.40
